Time;durP1;ratioP1;P1;durP2;ratioP2;P2;SDS_P1;SDS_P2;PMS_P1;PMS_P2;Temp;Humidity;BMP_temperature;BMP_pressure;BME280_temperature;BME280_humidity;BME280_pressure;Samples;Min_cycle;Max_cycle;Signal;HPM_P1;HPM_P2
2022/04/23 00:00:21;;;;;;;;;37.00;26.00;;;;;16.36;44.95;99396.75;5175349;27;45102;-67
2022/04/23 00:02:47;;;;;;;;;28.75;26.25;;;;;16.25;45.79;99384.38;5166155;27;45382;-65
2022/04/23 00:05:12;;;;;;;;;23.50;22.75;;;;;16.14;45.49;99377.41;5167875;27;45251;-64
2022/04/23 00:07:38;;;;;;;;;30.25;22.00;;;;;16.25;45.94;99397.88;5163442;27;45783;-65
2022/04/23 00:10:04;;;;;;;;;30.50;23.25;;;;;16.26;45.32;99394.25;5158498;27;45342;-65
2022/04/23 00:12:30;;;;;;;;;29.00;27.50;;;;;16.27;45.31;99390.63;5165730;27;45563;-65
2022/04/23 00:14:55;;;;;;;;;27.00;22.00;;;;;15.82;45.29;99313.31;5168787;27;45413;-67
2022/04/23 00:17:21;;;;;;;;;22.75;21.25;;;;;16.26;45.36;99395.16;5174663;27;45380;-62
2022/04/23 00:19:47;;;;;;;;;24.25;24.25;;;;;16.24;45.44;99377.25;5167112;27;45248;-65
2022/04/23 00:22:15;;;;;;;;;22.50;20.25;;;;;16.27;45.44;99391.53;5167896;27;45429;-65
2022/04/23 00:24:41;;;;;;;;;37.25;29.50;;;;;16.22;45.70;99382.66;5164426;27;45377;-65
2022/04/23 00:27:06;;;;;;;;;26.25;20.75;;;;;16.17;45.98;99381.84;5158759;27;45410;-65
2022/04/23 00:29:32;;;;;;;;;30.00;25.00;;;;;16.19;45.86;99374.63;5139608;27;45239;-64
2022/04/23 00:31:57;;;;;;;;;27.25;26.75;;;;;16.20;45.51;99384.47;5158316;27;45286;-65
2022/04/23 00:34:22;;;;;;;;;34.50;27.75;;;;;16.23;45.81;99375.44;5159880;27;45286;-63
2022/04/23 00:36:48;;;;;;;;;33.50;25.50;;;;;16.24;45.86;99385.31;5158667;27;45359;-63
2022/04/23 00:39:13;;;;;;;;;33.25;27.75;;;;;16.05;45.71;99349.75;5158868;27;45581;-63
2022/04/23 00:41:47;;;;;;;;;26.50;23.00;;;;;16.10;45.86;99375.69;5139542;27;45368;-65
2022/04/23 00:44:15;;;;;;;;;33.25;31.00;;;;;16.07;46.37;99373.06;5162128;27;45522;-65
2022/04/23 00:46:41;;;;;;;;;27.50;25.25;;;;;15.95;45.96;99347.19;5167044;27;45402;-64
2022/04/23 00:49:07;;;;;;;;;33.75;31.00;;;;;16.04;45.92;99370.41;5165844;27;45461;-66
2022/04/23 00:51:32;;;;;;;;;28.50;27.50;;;;;15.99;46.08;99365.09;5158632;27;45366;-67
2022/04/23 00:54:01;;;;;;;;;31.25;28.50;;;;;15.46;46.58;99286.13;5169965;27;45498;-65
2022/04/23 00:56:26;;;;;;;;;27.50;26.00;;;;;15.90;46.74;99364.38;5169112;27;45585;-63
2022/04/23 00:58:53;;;;;;;;;26.75;26.75;;;;;15.84;46.62;99343.84;5165464;27;45341;-64
2022/04/23 01:01:23;;;;;;;;;28.25;25.00;;;;;15.85;46.66;99345.59;5160637;27;45355;-67
2022/04/23 01:03:49;;;;;;;;;27.50;25.25;;;;;15.84;46.46;99360.88;5166704;27;45205;-66
2022/04/23 01:06:15;;;;;;;;;28.75;26.50;;;;;15.86;46.55;99346.50;5160119;27;46373;-63
2022/04/23 01:08:41;;;;;;;;;27.00;25.50;;;;;15.80;46.75;99339.41;5157679;27;45304;-65
2022/04/23 01:11:07;;;;;;;;;32.00;27.25;;;;;15.82;46.65;99345.66;5170654;27;45396;-65
2022/04/23 01:13:32;;;;;;;;;24.50;22.00;;;;;15.72;47.07;99333.22;5167666;27;45367;-65
2022/04/23 01:16:08;;;;;;;;;30.50;29.00;;;;;15.76;46.88;99330.50;5161543;27;45747;-64
2022/04/23 01:18:36;;;;;;;;;33.75;27.50;;;;;15.76;46.98;99330.50;5157641;27;45484;-65
2022/04/23 01:21:04;;;;;;;;;28.00;26.00;;;;;15.77;46.90;99326.91;5158161;27;45370;-66
2022/04/23 01:23:30;;;;;;;;;34.25;30.00;;;;;15.75;46.92;99325.09;5158349;27;45645;-64
2022/04/23 01:25:56;;;;;;;;;30.25;24.75;;;;;15.69;47.00;99327.91;5157558;27;47169;-64
2022/04/23 01:28:23;;;;;;;;;29.25;26.75;;;;;15.64;47.38;99327.97;5159076;27;45587;-64
2022/04/23 01:30:50;;;;;;;;;26.75;25.25;;;;;15.68;47.16;99334.22;5159596;27;45533;-64
2022/04/23 01:33:16;;;;;;;;;32.25;26.50;;;;;15.66;47.28;99331.56;5160663;27;45310;-64
2022/04/23 01:35:43;;;;;;;;;27.25;26.25;;;;;15.66;47.24;99331.56;5162054;27;46331;-63
2022/04/23 01:38:08;;;;;;;;;25.00;22.25;;;;;15.65;47.25;99333.31;5168234;27;45474;-64
2022/04/23 01:40:33;;;;;;;;;25.00;24.75;;;;;15.62;47.12;99333.41;5170225;27;45492;-67
2022/04/23 01:42:59;;;;;;;;;31.50;26.75;;;;;15.64;47.63;99328.88;5168313;27;45281;-65
2022/04/23 01:45:24;;;;;;;;;27.25;25.00;;;;;15.62;47.13;99328.03;5164861;27;45373;-63
2022/04/23 01:47:51;;;;;;;;;28.50;27.75;;;;;15.66;47.09;99321.66;5176176;27;44923;-65
2022/04/23 01:50:16;;;;;;;;;30.00;28.00;;;;;15.66;47.42;99323.47;5162745;27;45399;-64
2022/04/23 01:52:42;;;;;;;;;28.75;27.00;;;;;15.62;47.10;99314.56;5158116;27;45468;-63
2022/04/23 01:55:08;;;;;;;;;22.00;21.25;;;;;15.46;47.25;99297.78;5157780;27;45442;-65
2022/04/23 01:57:34;;;;;;;;;29.50;26.75;;;;;15.58;47.51;99318.22;5157650;27;45479;-66
2022/04/23 02:00:02;;;;;;;;;26.00;24.00;;;;;15.57;47.31;99313.72;5157533;27;45414;-65
2022/04/23 02:02:27;;;;;;;;;25.00;23.75;;;;;15.53;47.33;99321.91;5159202;27;45517;-65
2022/04/23 02:04:52;;;;;;;;;34.00;30.00;;;;;15.41;47.39;99299.66;5160874;27;49945;-63
2022/04/23 02:07:18;;;;;;;;;29.25;27.25;;;;;15.50;47.66;99317.44;5157654;27;45367;-62
2022/04/23 02:09:43;;;;;;;;;31.75;28.75;;;;;15.48;47.74;99311.22;5158103;27;45770;-64
2022/04/23 02:12:09;;;;;;;;;25.50;24.25;;;;;15.44;47.47;99315.75;5162384;27;45069;-66
2022/04/23 02:14:35;;;;;;;;;24.75;21.25;;;;;15.43;47.59;99313.09;5163798;27;45989;-67
2022/04/23 02:17:01;;;;;;;;;30.50;27.00;;;;;15.43;47.81;99308.59;5166542;27;45261;-63
2022/04/23 02:19:27;;;;;;;;;29.00;27.00;;;;;15.33;48.01;99311.44;5157946;27;45509;-63
2022/04/23 02:21:52;;;;;;;;;29.25;27.25;;;;;14.72;48.94;99228.13;5157416;27;45653;-64
2022/04/23 02:24:17;;;;;;;;;27.75;26.25;;;;;15.08;48.87;99310.03;5157677;27;47257;-65
2022/04/23 02:26:43;;;;;;;;;30.00;26.50;;;;;15.06;48.79;99298.44;5155183;27;49002;-63
2022/04/23 02:29:08;;;;;;;;;30.00;29.00;;;;;15.06;48.86;99302.91;5160449;27;45218;-63
2022/04/23 02:31:34;;;;;;;;;24.00;19.50;;;;;15.10;48.79;99302.84;5170536;27;45025;-64
2022/04/23 02:33:59;;;;;;;;;28.00;26.50;;;;;15.16;48.69;99300.97;5168505;27;45432;-64
2022/04/23 02:36:24;;;;;;;;;27.75;27.00;;;;;15.16;48.36;99299.16;5146337;27;54266;-65
2022/04/23 02:38:52;;;;;;;;;27.50;26.50;;;;;15.05;48.37;99274.25;5159793;27;45521;-64
2022/04/23 02:41:18;;;;;;;;;25.75;24.00;;;;;15.18;48.38;99297.34;5157506;27;45604;-64
2022/04/23 02:43:45;;;;;;;;;25.50;23.00;;;;;14.99;48.65;99279.72;5155357;27;45257;-63
2022/04/23 02:46:14;;;;;;;;;29.50;26.00;;;;;15.11;48.54;99291.19;5164426;27;45229;-66
2022/04/23 02:48:40;;;;;;;;;26.25;25.25;;;;;15.09;48.56;99286.72;5170304;27;45385;-65
2022/04/23 02:51:05;;;;;;;;;26.00;24.25;;;;;15.04;48.73;99286.78;5166100;27;45288;-63
2022/04/23 02:53:31;;;;;;;;;29.00;23.50;;;;;14.93;49.21;99284.28;5163585;27;45972;-63
2022/04/23 02:55:56;;;;;;;;;27.50;24.25;;;;;14.86;48.94;99276.31;5160409;27;45298;-63
2022/04/23 02:58:25;;;;;;;;;27.50;27.00;;;;;14.90;49.04;99275.38;5171444;27;45625;-63
2022/04/23 03:00:52;;;;;;;;;29.00;26.25;;;;;14.80;48.85;99271.91;5134529;27;45353;-65
2022/04/23 03:03:18;;;;;;;;;32.00;31.00;;;;;14.79;49.27;99272.81;5143649;27;45496;-64
2022/04/23 03:05:46;;;;;;;;;28.25;26.50;;;;;14.79;49.31;99267.44;5158818;27;45416;-65
2022/04/23 03:08:12;;;;;;;;;25.50;21.75;;;;;14.59;49.46;99238.16;5156915;27;45634;-64
2022/04/23 03:10:41;;;;;;;;;31.75;25.50;;;;;14.79;49.58;99270.13;5160726;27;45531;-62
2022/04/23 03:13:07;;;;;;;;;32.00;29.25;;;;;14.65;49.70;99245.25;5160682;27;46183;-66
2022/04/23 03:15:33;;;;;;;;;33.25;29.75;;;;;14.70;49.15;99255.03;5156456;27;45443;-66
2022/04/23 03:18:17;;;;;;;;;26.75;23.00;;;;;14.84;49.31;99265.56;5152502;27;44830;-65
2022/04/23 03:20:42;;;;;;;;;32.00;29.50;;;;;14.50;49.43;99209.59;5160714;27;45241;-67
2022/04/23 03:23:08;;;;;;;;;29.00;26.75;;;;;14.76;49.54;99267.47;5161716;27;45541;-69
2022/04/23 03:25:33;;;;;;;;;29.75;25.25;;;;;14.69;49.76;99261.31;5160653;27;45505;-67
2022/04/23 03:28:00;;;;;;;;;27.25;26.00;;;;;14.66;49.91;99261.34;5142639;27;45329;-65
2022/04/23 03:30:26;;;;;;;;;27.75;25.00;;;;;14.63;49.58;99257.81;5160947;27;45273;-64
2022/04/23 03:32:53;;;;;;;;;26.75;26.25;;;;;14.59;49.71;99256.06;5159917;27;46209;-66
2022/04/23 03:35:18;;;;;;;;;28.75;25.75;;;;;14.56;50.11;99255.19;5166220;27;45298;-66
2022/04/23 03:37:44;;;;;;;;;28.00;26.25;;;;;14.54;50.27;99264.19;5149961;27;45246;-65
2022/04/23 03:40:11;;;;;;;;;32.75;26.50;;;;;14.44;50.20;99251.78;5164209;27;45304;-64
2022/04/23 03:42:37;;;;;;;;;23.25;23.00;;;;;14.44;50.40;99250.00;5161459;27;45452;-65
2022/04/23 03:45:04;;;;;;;;;29.00;27.00;;;;;14.44;49.87;99244.63;5165018;27;45520;-65
2022/04/23 03:47:31;;;;;;;;;30.25;26.75;;;;;14.40;50.15;99237.47;5160765;27;45501;-64
2022/04/23 03:49:57;;;;;;;;;29.25;24.75;;;;;14.43;50.47;99233.88;5141442;27;45329;-66
2022/04/23 03:52:22;;;;;;;;;24.25;22.75;;;;;14.44;50.42;99235.69;5169630;27;46079;-68
2022/04/23 03:54:48;;;;;;;;;26.00;25.75;;;;;14.47;49.78;99233.81;5169048;27;45362;-64
2022/04/23 03:57:13;;;;;;;;;28.25;27.00;;;;;14.47;49.82;99240.97;5177137;27;45252;-65
2022/04/23 03:59:38;;;;;;;;;30.50;25.75;;;;;14.46;50.05;99245.47;5178291;27;45342;-68
2022/04/23 04:02:07;;;;;;;;;28.00;23.75;;;;;14.44;50.14;99249.09;5170436;27;52257;-67
2022/04/23 04:04:33;;;;;;;;;26.25;23.00;;;;;14.43;50.29;99242.81;5167105;27;45513;-65
2022/04/23 04:07:02;;;;;;;;;24.00;21.75;;;;;14.40;50.38;99232.13;5165863;27;45348;-65
2022/04/23 04:09:28;;;;;;;;;23.00;22.00;;;;;14.38;50.44;99221.38;5172210;27;45222;-66
2022/04/23 04:12:02;;;;;;;;;24.25;21.50;;;;;14.37;50.31;99210.69;5165119;27;45364;-64
2022/04/23 04:14:36;;;;;;;;;27.50;24.75;;;;;14.41;50.36;99225.84;5163663;27;45462;-66
2022/04/23 04:17:07;;;;;;;;;25.75;22.75;;;;;14.41;50.02;99228.53;5163125;27;45299;-65
2022/04/23 04:19:33;;;;;;;;;28.25;26.75;;;;;14.34;50.50;99224.16;5160653;27;45316;-65
2022/04/23 04:22:02;;;;;;;;;32.25;25.00;;;;;14.24;50.03;99204.59;5168824;27;45908;-67
2022/04/23 04:24:28;;;;;;;;;25.25;24.00;;;;;14.23;50.44;99194.75;5174379;27;45491;-67
2022/04/23 04:26:53;;;;;;;;;27.00;19.75;;;;;14.36;50.08;99227.72;5167960;27;45261;-63
2022/04/23 04:29:19;;;;;;;;;26.50;22.75;;;;;14.38;50.09;99228.56;5171625;27;45249;-64
2022/04/23 04:31:47;;;;;;;;;32.50;26.50;;;;;14.34;49.82;99216.09;5169007;27;45552;-63
2022/04/23 04:34:13;;;;;;;;;22.50;21.00;;;;;14.37;50.06;99230.38;5160057;27;45530;-66
2022/04/23 04:36:39;;;;;;;;;35.75;30.25;;;;;14.24;50.14;99201.00;5166471;27;45362;-66
2022/04/23 04:39:05;;;;;;;;;24.00;23.00;;;;;14.36;50.05;99222.34;5158458;27;45457;-67
2022/04/23 04:41:31;;;;;;;;;23.75;21.75;;;;;14.37;49.80;99226.81;5167108;27;45517;-66
2022/04/23 04:43:57;;;;;;;;;24.50;21.50;;;;;14.34;50.21;99221.47;5166857;27;45303;-65
2022/04/23 04:46:22;;;;;;;;;31.75;26.25;;;;;14.33;50.57;99222.38;5160202;27;45461;-65
2022/04/23 04:48:48;;;;;;;;;25.50;21.75;;;;;14.29;50.52;99224.22;5163600;27;45292;-64
2022/04/23 04:51:13;;;;;;;;;26.00;24.75;;;;;14.28;49.94;99216.19;5160590;27;46090;-64
2022/04/23 04:53:38;;;;;;;;;22.50;22.25;;;;;14.27;50.38;99214.38;5162912;27;45323;-67
2022/04/23 04:56:05;;;;;;;;;29.50;22.75;;;;;14.26;50.13;99221.56;5164670;27;45506;-65
2022/04/23 04:58:32;;;;;;;;;28.25;24.00;;;;;14.28;50.18;99221.53;5165109;27;45748;-66
2022/04/23 05:00:57;;;;;;;;;25.75;22.75;;;;;14.14;50.41;99190.38;5166128;27;45334;-65
2022/04/23 05:03:22;;;;;;;;;26.75;26.50;;;;;14.26;50.27;99223.38;5173323;27;51999;-63
2022/04/23 05:05:47;;;;;;;;;32.25;26.00;;;;;14.26;49.93;99220.69;5163191;27;45367;-66
2022/04/23 05:08:13;;;;;;;;;22.25;21.00;;;;;14.17;50.70;99224.34;5171517;27;45066;-65
2022/04/23 05:10:38;;;;;;;;;26.50;25.00;;;;;14.05;50.80;99222.72;5173874;27;45173;-66
2022/04/23 05:13:03;;;;;;;;;36.00;23.25;;;;;14.06;51.10;99227.19;5165124;27;45294;-66
2022/04/23 05:15:29;;;;;;;;;24.00;21.75;;;;;14.07;51.22;99226.28;5172713;27;45285;-65
2022/04/23 05:17:54;;;;;;;;;28.50;24.00;;;;;14.08;51.00;99221.81;5171221;27;45336;-65
2022/04/23 05:20:19;;;;;;;;;23.25;21.50;;;;;14.05;51.09;99216.47;5173849;27;47036;-65
2022/04/23 05:22:45;;;;;;;;;23.75;21.00;;;;;14.15;50.45;99229.75;5173993;27;45046;-66
2022/04/23 05:25:10;;;;;;;;;26.75;22.25;;;;;14.18;50.67;99224.34;5176924;27;44925;-66
2022/04/23 05:27:36;;;;;;;;;23.75;23.00;;;;;14.20;50.33;99213.56;5160049;27;45284;-65
2022/04/23 05:30:01;;;;;;;;;24.75;23.75;;;;;14.18;50.53;99207.34;5160416;27;45329;-65
2022/04/23 05:32:26;;;;;;;;;24.50;20.00;;;;;14.17;50.83;99214.53;5163261;27;45190;-65
2022/04/23 05:34:52;;;;;;;;;20.50;20.25;;;;;14.20;50.28;99221.63;5165892;27;45591;-64
2022/04/23 05:37:18;;;;;;;;;26.50;24.25;;;;;14.19;50.57;99211.81;5168359;27;45368;-66
2022/04/23 05:39:43;;;;;;;;;25.50;24.00;;;;;14.23;50.85;99210.84;5166542;27;47039;-66
2022/04/23 05:42:08;;;;;;;;;28.25;24.75;;;;;13.96;50.46;99150.34;5152686;27;45293;-66
2022/04/23 05:44:34;;;;;;;;;28.00;22.25;;;;;14.25;50.70;99205.47;5167828;27;45387;-65
2022/04/23 05:46:59;;;;;;;;;26.00;25.25;;;;;14.11;50.72;99181.50;5168039;27;45255;-65
2022/04/23 05:49:24;;;;;;;;;32.25;26.50;;;;;14.25;50.47;99195.59;5173657;27;46197;-67
2022/04/23 05:51:50;;;;;;;;;25.50;24.00;;;;;14.34;50.13;99203.53;5175859;27;44958;-67
2022/04/23 05:54:15;;;;;;;;;29.25;28.25;;;;;14.25;50.21;99182.16;5174533;27;45235;-65
2022/04/23 05:56:41;;;;;;;;;36.75;28.00;;;;;14.44;50.21;99212.38;5173922;27;44857;-67
2022/04/23 05:59:07;;;;;;;;;29.00;27.25;;;;;14.32;50.16;99170.44;5174504;27;45533;-67
2022/04/23 06:01:32;;;;;;;;;25.75;25.50;;;;;14.59;49.83;99200.53;5173430;27;45091;-68
2022/04/23 06:03:57;;;;;;;;;29.25;27.50;;;;;14.24;49.98;99132.06;5173474;27;45078;-67
2022/04/23 06:06:24;;;;;;;;;27.50;24.00;;;;;14.62;49.40;99197.81;5171872;27;45211;-67
2022/04/23 06:08:50;;;;;;;;;28.00;24.50;;;;;14.63;49.47;99201.38;5169374;27;45458;-66
2022/04/23 06:11:15;;;;;;;;;31.00;28.50;;;;;14.61;49.80;99208.59;5169616;27;45272;-67
2022/04/23 06:13:40;;;;;;;;;60.25;47.00;;;;;14.45;50.17;99205.19;5173614;27;45092;-68
2022/04/23 06:16:06;;;;;;;;;28.25;25.75;;;;;14.54;49.92;99216.69;5173423;27;45416;-68
2022/04/23 06:18:31;;;;;;;;;27.50;25.50;;;;;14.53;49.64;99205.97;5171502;27;45342;-68
2022/04/23 06:20:56;;;;;;;;;28.00;26.00;;;;;14.72;49.79;99234.38;5145381;27;45306;-68
2022/04/23 06:23:22;;;;;;;;;28.00;24.50;;;;;14.80;49.39;99223.53;5128943;27;45394;-67
2022/04/23 06:25:47;;;;;;;;;29.25;26.50;;;;;14.89;49.63;99217.09;5121695;27;45541;-68
2022/04/23 06:28:12;;;;;;;;;29.25;25.75;;;;;14.95;49.14;99235.84;5136200;27;46388;-68
2022/04/23 06:30:39;;;;;;;;;24.75;21.75;;;;;14.71;49.11;99212.91;5143955;27;45122;-68
2022/04/23 06:33:05;;;;;;;;;27.25;26.00;;;;;14.90;49.17;99238.59;5136832;27;45436;-67
2022/04/23 06:35:31;;;;;;;;;31.25;28.75;;;;;14.97;49.49;99225.06;5142922;27;45442;-68
2022/04/23 06:37:57;;;;;;;;;27.25;25.00;;;;;15.05;48.97;99217.75;5144020;27;46168;-68
2022/04/23 06:40:23;;;;;;;;;35.50;29.50;;;;;15.13;48.85;99228.38;5147008;27;45367;-68
2022/04/23 06:42:48;;;;;;;;;30.75;27.25;;;;;15.02;49.22;99193.59;5146582;27;45484;-66
2022/04/23 06:45:13;;;;;;;;;32.00;30.00;;;;;15.25;48.93;99220.97;5144689;27;45340;-68
2022/04/23 06:47:39;;;;;;;;;34.50;31.50;;;;;15.22;48.99;99204.00;5143544;27;45408;-68
2022/04/23 06:50:06;;;;;;;;;29.00;28.25;;;;;15.21;48.84;99176.22;5148584;27;49546;-68
2022/04/23 06:52:31;;;;;;;;;30.75;30.00;;;;;15.31;48.49;99179.66;5154328;27;45055;-69
2022/04/23 06:54:57;;;;;;;;;29.75;26.00;;;;;15.53;48.06;99204.34;5149762;27;45319;-68
2022/04/23 06:57:23;;;;;;;;;40.00;33.25;;;;;15.62;47.77;99225.72;5147066;27;45687;-68
2022/04/23 06:59:49;;;;;;;;;37.50;30.25;;;;;15.69;47.88;99226.50;5139540;27;45594;-68
2022/04/23 07:02:15;;;;;;;;;28.00;27.00;;;;;15.74;48.19;99216.53;5150264;27;45651;-68
2022/04/23 07:04:40;;;;;;;;;30.00;28.25;;;;;15.82;47.88;99219.97;5142447;27;45443;-67
2022/04/23 07:07:06;;;;;;;;;29.00;26.75;;;;;15.90;47.61;99218.94;5140627;27;47838;-67
2022/04/23 07:09:31;;;;;;;;;26.75;25.75;;;;;15.93;47.69;99211.66;5150489;27;45129;-67
2022/04/23 07:11:58;;;;;;;;;36.25;31.25;;;;;15.57;46.59;99148.63;5141643;27;45404;-68
2022/04/23 07:14:24;;;;;;;;;28.50;28.25;;;;;15.89;47.03;99188.44;5122410;27;45336;-68
2022/04/23 07:16:49;;;;;;;;;31.75;27.75;;;;;15.87;46.96;99192.94;5135642;27;46157;-67
2022/04/23 07:19:15;;;;;;;;;28.50;27.25;;;;;15.77;47.25;99164.44;5135708;27;45396;-68
2022/04/23 07:21:40;;;;;;;;;33.25;31.25;;;;;16.02;47.15;99207.94;5117593;27;45366;-67
2022/04/23 07:24:08;;;;;;;;;31.25;29.00;;;;;16.06;47.31;99211.44;5129050;27;45448;-68
2022/04/23 07:26:34;;;;;;;;;32.75;28.25;;;;;16.06;46.89;99212.31;5144235;27;45238;-66
2022/04/23 07:29:02;;;;;;;;;26.75;26.00;;;;;15.90;47.24;99171.34;5147297;27;45301;-69
2022/04/23 07:31:28;;;;;;;;;38.00;29.25;;;;;16.11;46.69;99206.84;5144783;27;45278;-67
2022/04/23 07:39:21;;;;;;;;;26.25;25.25;;;;;15.79;46.77;99157.22;5136749;27;45434;-67
2022/04/23 07:41:46;;;;;;;;;32.00;28.00;;;;;16.14;46.87;99207.66;5134482;27;45401;-68
2022/04/23 07:44:12;;;;;;;;;30.50;29.75;;;;;16.12;46.94;99214.88;5132078;27;44925;-68
2022/04/23 07:46:39;;;;;;;;;30.75;28.00;;;;;16.10;47.35;99218.53;5131094;27;52808;-68
2022/04/23 07:49:04;;;;;;;;;36.25;30.50;;;;;16.15;47.18;99201.34;5120730;27;45375;-68
2022/04/23 07:51:30;;;;;;;;;34.25;31.00;;;;;16.19;47.32;99207.56;5121594;27;45313;-68
2022/04/23 07:53:55;;;;;;;;;26.00;25.50;;;;;15.85;46.71;99132.84;5124392;27;45407;-68
2022/04/23 07:56:21;;;;;;;;;29.50;27.25;;;;;16.34;47.06;99203.66;5128060;27;45332;-67
2022/04/23 07:58:46;;;;;;;;;27.50;25.25;;;;;16.23;46.90;99160.75;5129251;27;45208;-67
2022/04/23 08:01:12;;;;;;;;;33.25;30.25;;;;;16.55;46.94;99191.50;5130788;27;44959;-68
2022/04/23 08:03:37;;;;;;;;;35.75;31.25;;;;;16.62;46.45;99198.50;5132419;27;44948;-68
2022/04/23 08:06:02;;;;;;;;;31.75;26.75;;;;;16.67;46.46;99191.19;5129528;27;45729;-67
2022/04/23 08:08:28;;;;;;;;;31.25;27.25;;;;;16.79;46.31;99190.00;5122226;27;45409;-66
2022/04/23 08:10:53;;;;;;;;;32.75;30.25;;;;;16.82;45.55;99189.06;5126199;27;45278;-66
2022/04/23 08:13:20;;;;;;;;;30.75;27.75;;;;;16.74;46.29;99168.53;5123737;27;45488;-65
2022/04/23 08:15:46;;;;;;;;;28.75;26.25;;;;;16.93;45.30;99187.03;5125829;27;46589;-69
2022/04/23 08:18:11;;;;;;;;;26.00;26.00;;;;;16.99;45.55;99197.66;5130570;27;45462;-67
2022/04/23 08:20:41;;;;;;;;;33.25;30.50;;;;;16.84;45.41;99163.81;5135553;27;45613;-69
2022/04/23 08:23:06;;;;;;;;;35.25;30.50;;;;;17.03;45.34;99185.00;5143764;27;45371;-69
2022/04/23 08:25:32;;;;;;;;;35.00;32.50;;;;;17.12;45.28;99177.53;5146779;27;45165;-69
2022/04/23 08:30:34;;;;;;;;;29.00;28.00;;;;;17.21;45.82;99175.50;5155607;27;44947;-69
2022/04/23 08:30:46;;;;;;;;;36.25;34.25;;;;;17.30;45.13;99170.75;5156050;27;44922;-67
2022/04/23 08:33:11;;;;;;;;;32.00;31.50;;;;;17.37;45.30;99176.00;5157469;27;44979;-69
2022/04/23 08:35:38;;;;;;;;;25.00;23.00;;;;;17.31;45.09;99153.66;5176645;27;45330;-68
2022/04/23 08:38:05;;;;;;;;;32.75;30.50;;;;;17.49;44.97;99176.56;5157172;27;45063;-69
2022/04/23 08:40:40;;;;;;;;;38.25;32.50;;;;;17.07;44.73;99101.22;5176926;27;45199;-69
2022/04/23 08:43:09;;;;;;;;;50.75;41.50;;;;;17.55;44.78;99167.41;5156204;27;45295;-69
2022/04/23 08:45:38;;;;;;;;;33.75;28.25;;;;;17.52;44.64;99164.78;5174161;27;46195;-67
2022/04/23 08:48:08;;;;;;;;;32.25;26.75;;;;;17.53;45.04;99165.69;5174376;27;45087;-69
2022/04/23 08:50:38;;;;;;;;;28.25;25.75;;;;;17.65;44.75;99178.84;5156107;27;45266;-68
2022/04/23 08:53:13;;;;;;;;;35.75;30.00;;;;;17.68;44.77;99173.34;5176650;27;45097;-69
2022/04/23 08:55:41;;;;;;;;;42.50;36.00;;;;;17.44;45.00;99126.31;5176393;27;45689;-69
2022/04/23 08:58:06;;;;;;;;;31.25;28.25;;;;;17.77;44.67;99181.22;5175876;27;45032;-67
2022/04/23 09:00:31;;;;;;;;;22.50;22.25;;;;;17.75;44.42;99172.28;5176230;27;45210;-69
2022/04/23 09:02:57;;;;;;;;;36.00;31.50;;;;;17.76;44.96;99165.91;5175346;27;45148;-70
2022/04/23 09:05:25;;;;;;;;;53.25;43.75;;;;;17.86;44.68;99178.22;5175818;27;45155;-69
2022/04/23 09:07:53;;;;;;;;;38.25;34.00;;;;;17.87;44.97;99168.38;5165156;27;44941;-67
2022/04/23 09:10:19;;;;;;;;;27.75;27.75;;;;;17.64;44.94;99145.56;5154858;27;45066;-68
2022/04/23 09:12:58;;;;;;;;;29.25;27.25;;;;;17.72;45.09;99147.13;5135497;27;45471;-69
2022/04/23 09:23:43;;;;;;;;;39.25;34.25;;;;;17.81;44.61;99153.16;5156343;27;45197;-69
2022/04/23 09:26:18;;;;;;;;;32.00;30.00;;;;;17.96;45.22;99178.00;5173944;27;45183;-68
2022/04/23 09:28:49;;;;;;;;;29.75;26.50;;;;;17.99;45.32;99177.91;5176102;27;45120;-70
2022/04/23 09:31:18;;;;;;;;;33.75;30.50;;;;;17.99;44.96;99178.78;5175857;27;45017;-69
2022/04/23 09:33:54;;;;;;;;;31.00;28.25;;;;;18.04;45.11;99178.66;5176405;27;45066;-67
2022/04/23 09:36:20;;;;;;;;;31.25;29.25;;;;;18.21;44.93;99176.38;5157234;27;46592;-69
2022/04/23 09:39:06;;;;;;;;;23.00;22.50;;;;;18.22;44.62;99152.91;5175647;27;45087;-68
2022/04/23 09:41:34;;;;;;;;;33.00;32.25;;;;;18.50;44.13;99171.00;5146196;27;45098;-69
2022/04/23 09:44:09;;;;;;;;;29.75;29.00;;;;;18.58;44.24;99163.50;5154876;27;45074;-69
2022/04/23 09:46:49;;;;;;;;;36.00;29.75;;;;;18.65;44.29;99165.06;5153926;27;45821;-69
2022/04/23 09:49:23;;;;;;;;;31.75;29.00;;;;;18.79;43.70;99168.22;5152389;27;45251;-70
2022/04/23 09:52:11;;;;;;;;;40.00;33.00;;;;;18.96;43.66;99164.13;5154029;27;45051;-69
2022/04/23 09:54:38;;;;;;;;;34.50;30.50;;;;;19.11;43.47;99157.28;5153147;27;45351;-68
2022/04/23 09:57:04;;;;;;;;;29.50;24.25;;;;;19.09;43.20;99149.22;5154238;27;45518;-68
2022/04/23 09:59:30;;;;;;;;;32.00;27.75;;;;;19.16;42.79;99149.91;5173572;27;45261;-70
2022/04/23 10:01:56;;;;;;;;;30.00;25.75;;;;;19.32;43.08;99161.09;5173798;27;45155;-69
2022/04/23 10:04:24;;;;;;;;;33.25;27.00;;;;;19.23;42.79;99137.91;5174066;27;45196;-68
2022/04/23 10:06:51;;;;;;;;;37.00;31.25;;;;;19.40;42.85;99149.97;5171947;27;45386;-70
2022/04/23 10:09:19;;;;;;;;;34.75;28.75;;;;;19.51;42.60;99159.47;5173486;27;45172;-69
2022/04/23 10:11:49;;;;;;;;;33.50;24.75;;;;;19.51;42.53;99150.47;5173223;27;45138;-69
2022/04/23 10:14:22;;;;;;;;;26.50;23.25;;;;;19.52;42.42;99147.72;5174309;27;45327;-70
2022/04/23 10:16:49;;;;;;;;;30.25;28.50;;;;;19.74;42.21;99154.19;5175513;27;45591;-68
2022/04/23 10:19:15;;;;;;;;;29.25;26.75;;;;;19.80;42.19;99149.44;5175105;27;45035;-70
2022/04/23 10:22:14;;;;;;;;;30.00;23.50;;;;;19.56;41.91;99083.47;5176024;27;45243;-67
2022/04/23 10:24:54;;;;;;;;;25.25;22.75;;;;;20.04;41.57;99155.75;5175510;27;44991;-69
2022/04/23 10:27:25;;;;;;;;;29.75;25.75;;;;;20.10;41.59;99140.22;5175037;27;45247;-69
2022/04/23 10:29:54;;;;;;;;;23.00;23.00;;;;;20.19;41.53;99142.56;5173799;27;45289;-70
2022/04/23 10:32:20;;;;;;;;;25.00;24.00;;;;;20.23;41.24;99141.50;5137924;27;45382;-69
2022/04/23 10:34:46;;;;;;;;;25.00;24.50;;;;;20.28;40.84;99154.88;5152569;27;45259;-69
2022/04/23 10:37:19;;;;;;;;;27.00;24.25;;;;;20.33;40.74;99145.63;5151639;27;45551;-68
2022/04/23 10:39:51;;;;;;;;;29.25;26.75;;;;;20.43;40.69;99147.03;5151750;27;44967;-70
2022/04/23 10:42:17;;;;;;;;;29.00;27.75;;;;;20.54;40.61;99148.41;5152966;27;45271;-69
2022/04/23 10:44:44;;;;;;;;;40.00;35.50;;;;;20.62;40.67;99136.31;5151581;27;45002;-70
2022/04/23 10:47:15;;;;;;;;;30.75;28.25;;;;;20.64;40.13;99125.44;5150599;27;45377;-70
2022/04/23 10:49:41;;;;;;;;;26.25;22.50;;;;;20.81;39.96;99132.88;5152584;27;45127;-70
2022/04/23 10:52:07;;;;;;;;;27.75;24.50;;;;;20.78;40.46;99130.28;5154055;27;45214;-70
2022/04/23 10:54:42;;;;;;;;;20.75;20.75;;;;;20.84;39.94;99134.56;5153829;27;44996;-70
2022/04/23 10:57:15;;;;;;;;;23.25;22.75;;;;;20.89;40.12;99146.13;5153211;27;45220;-69
2022/04/23 10:59:48;;;;;;;;;22.75;20.75;;;;;20.92;39.87;99116.13;5152697;27;44965;-69
2022/04/23 11:02:19;;;;;;;;;23.00;21.50;;;;;21.10;39.63;99133.47;5152463;27;45300;-68
2022/04/23 11:13:50;;;;;;;;;20.25;18.25;;;;;21.08;39.18;99125.38;5171604;27;45059;-69
2022/04/23 11:16:17;;;;;;;;;21.00;17.75;;;;;21.14;38.89;99137.84;5173356;27;45005;-69
2022/04/23 11:18:49;;;;;;;;;19.00;17.25;;;;;21.18;39.07;99123.16;5171743;27;46096;-69
2022/04/23 11:21:32;;;;;;;;;19.75;19.25;;;;;20.74;38.09;99044.50;5171334;27;45107;-70
2022/04/23 11:24:00;;;;;;;;;20.00;18.25;;;;;21.03;38.49;99094.84;5154782;27;45500;-69
2022/04/23 11:26:39;;;;;;;;;17.75;17.25;;;;;21.14;39.00;99114.25;5152868;27;44932;-69
2022/04/23 11:29:05;;;;;;;;;14.50;13.75;;;;;21.11;38.11;99114.41;5151741;27;45658;-69
2022/04/23 11:31:30;;;;;;;;;10.25;9.25;;;;;20.97;38.53;99087.84;5149906;27;44984;-69
2022/04/23 11:33:57;;;;;;;;;16.50;13.75;;;;;21.19;38.14;99115.91;5151542;27;44940;-69
2022/04/23 11:36:33;;;;;;;;;12.25;11.50;;;;;21.25;38.15;99102.94;5150836;27;45337;-68
2022/04/23 11:39:03;;;;;;;;;16.25;13.75;;;;;21.32;38.16;99090.84;5162627;27;45244;-68